Time;durP1;ratioP1;P1;durP2;ratioP2;P2;SDS_P1;SDS_P2;PMS_P1;PMS_P2;Temp;Humidity;BMP_temperature;BMP_pressure;BME280_temperature;BME280_humidity;BME280_pressure;Samples;Min_cycle;Max_cycle;Signal;HPM_P1;HPM_P2
2023/02/24 00:01:36;;;;;;;76.32;48.45;;;14.40;1.00;;;;;;5113095;28;20031;-59
2023/02/24 00:04:06;;;;;;;77.72;50.58;;;14.40;1.00;;;;;;5112786;28;20060;-59
2023/02/24 00:06:40;;;;;;;73.90;48.08;;;14.30;1.00;;;;;;5114463;28;20214;-59
2023/02/24 00:09:15;;;;;;;78.15;52.00;;;14.30;1.00;;;;;;5114044;28;20042;-59
2023/02/24 00:11:47;;;;;;;79.63;52.80;;;14.20;1.00;;;;;;5113993;28;20124;-59
2023/02/24 00:14:15;;;;;;;79.90;51.85;;;14.20;1.00;;;;;;5113841;28;20255;-59
2023/02/24 00:16:42;;;;;;;77.05;50.70;;;14.10;1.00;;;;;;5114274;28;20498;-59
2023/02/24 00:19:10;;;;;;;77.95;50.65;;;14.10;1.00;;;;;;5113697;28;20073;-59
2023/02/24 00:21:35;;;;;;;80.75;50.65;;;14.10;1.00;;;;;;5113100;28;20315;-59
2023/02/24 00:24:02;;;;;;;75.47;49.85;;;14.20;1.00;;;;;;5113782;28;20032;-59
2023/02/24 00:26:28;;;;;;;78.97;50.63;;;14.20;1.00;;;;;;5113602;28;20030;-59
2023/02/24 00:28:59;;;;;;;76.50;51.15;;;14.20;1.00;;;;;;5112682;28;20027;-59
2023/02/24 00:31:29;;;;;;;80.88;50.08;;;14.20;1.00;;;;;;5099983;28;20030;-59
2023/02/24 00:33:56;;;;;;;80.68;50.08;;;14.30;1.00;;;;;;5092349;28;20441;-58
2023/02/24 00:36:23;;;;;;;82.00;52.33;;;14.30;1.00;;;;;;5111117;28;20074;-59
2023/02/24 00:38:54;;;;;;;81.68;50.50;;;14.30;1.00;;;;;;5114796;28;20185;-59
2023/02/24 00:41:22;;;;;;;85.38;55.70;;;14.30;1.00;;;;;;5114612;28;20545;-59
2023/02/24 00:43:49;;;;;;;88.25;55.05;;;14.30;1.00;;;;;;5114405;28;20046;-59
2023/02/24 00:46:16;;;;;;;82.00;53.25;;;14.30;1.00;;;;;;5115323;28;20379;-59
2023/02/24 00:48:47;;;;;;;79.05;51.58;;;14.30;1.00;;;;;;5113357;28;20052;-59
2023/02/24 00:51:15;;;;;;;83.43;50.83;;;14.30;1.00;;;;;;5105011;28;20515;-59
2023/02/24 00:53:43;;;;;;;86.28;53.88;;;14.20;1.00;;;;;;5114296;28;20153;-59
2023/02/24 00:56:15;;;;;;;81.05;51.67;;;14.30;1.00;;;;;;5114265;28;20043;-59
2023/02/24 00:58:42;;;;;;;80.00;50.70;;;14.20;1.00;;;;;;5114149;28;20472;-59
2023/02/24 01:01:16;;;;;;;82.28;52.13;;;14.30;1.00;;;;;;5112879;28;20034;-59
2023/02/24 01:03:43;;;;;;;82.57;51.75;;;14.30;1.00;;;;;;5099190;28;20089;-59
2023/02/24 01:06:11;;;;;;;82.05;51.85;;;14.30;1.00;;;;;;5112714;28;20118;-59
2023/02/24 01:08:46;;;;;;;82.53;52.92;;;14.30;1.00;;;;;;5114029;28;20011;-59
2023/02/24 01:13:57;;;;;;;83.93;53.47;;;14.30;1.00;;;;;;5100189;28;20035;-59
2023/02/24 01:16:22;;;;;;;80.13;52.28;;;14.10;1.00;;;;;;5114222;28;20032;-59
2023/02/24 01:18:48;;;;;;;75.05;49.08;;;14.10;1.00;;;;;;5113547;28;20480;-59
2023/02/24 01:21:16;;;;;;;79.38;51.13;;;14.20;1.00;;;;;;5113889;28;20122;-59
2023/02/24 01:23:45;;;;;;;82.00;52.00;;;14.20;1.00;;;;;;5113956;28;20024;-59
2023/02/24 01:26:11;;;;;;;80.47;51.42;;;14.30;1.00;;;;;;5112239;28;20028;-59
2023/02/24 01:28:36;;;;;;;76.90;50.70;;;14.30;1.00;;;;;;5113580;28;20046;-59
2023/02/24 01:31:04;;;;;;;82.60;53.42;;;14.30;1.00;;;;;;5113765;28;20023;-59
2023/02/24 01:34:04;;;;;;;77.45;49.83;;;14.20;1.00;;;;;;5113395;28;20030;-59
2023/02/24 01:36:31;;;;;;;82.03;50.17;;;14.10;1.00;;;;;;5112326;28;20030;-59
2023/02/24 01:39:00;;;;;;;79.57;50.40;;;14.20;1.00;;;;;;5113571;28;20048;-59
2023/02/24 01:41:26;;;;;;;81.03;50.70;;;14.20;1.00;;;;;;5103581;28;20024;-59
2023/02/24 01:44:28;;;;;;;81.13;52.65;;;14.30;1.00;;;;;;5113295;28;20077;-59
2023/02/24 01:46:54;;;;;;;78.93;49.63;;;14.20;1.00;;;;;;5099144;28;20084;-59
2023/02/24 01:49:28;;;;;;;79.53;51.72;;;14.20;1.00;;;;;;5113169;28;20031;-59
2023/02/24 01:52:18;;;;;;;79.55;51.88;;;14.20;1.00;;;;;;5092915;28;20047;-59
2023/02/24 01:54:56;;;;;;;84.93;52.50;;;14.20;1.00;;;;;;5109180;28;20149;-59
2023/02/24 01:57:24;;;;;;;79.55;52.47;;;14.20;1.00;;;;;;5113122;28;20027;-59
2023/02/24 01:59:53;;;;;;;79.88;50.97;;;14.20;1.00;;;;;;5112851;28;20118;-59
2023/02/24 02:02:22;;;;;;;85.55;52.45;;;14.20;1.00;;;;;;5102692;28;20047;-59
2023/02/24 02:04:58;;;;;;;84.05;52.05;;;14.20;1.00;;;;;;5113245;28;20032;-59
2023/02/24 02:07:27;;;;;;;83.70;52.65;;;14.30;1.00;;;;;;5112578;28;20029;-59
2023/02/24 02:09:54;;;;;;;79.78;52.78;;;14.20;1.00;;;;;;5111953;28;20020;-59
2023/02/24 02:12:20;;;;;;;80.15;51.53;;;14.20;1.00;;;;;;5112314;28;20020;-59
2023/02/24 02:14:51;;;;;;;84.35;54.28;;;14.20;1.00;;;;;;5112649;28;20058;-59
2023/02/24 02:17:42;;;;;;;88.00;53.20;;;14.10;1.00;;;;;;5112925;28;20049;-59
2023/02/24 02:20:41;;;;;;;87.75;55.38;;;14.10;1.00;;;;;;5100813;28;20114;-58
2023/02/24 02:23:25;;;;;;;84.38;54.80;;;14.10;1.00;;;;;;5087972;28;20351;-59
2023/02/24 02:26:02;;;;;;;86.57;52.50;;;14.10;1.00;;;;;;5111173;28;20055;-59
2023/02/24 02:28:49;;;;;;;84.65;53.83;;;14.00;1.00;;;;;;5101071;28;20115;-58
2023/02/24 02:31:53;;;;;;;84.28;53.40;;;14.00;1.00;;;;;;5111233;28;20034;-58
2023/02/24 02:35:05;;;;;;;83.55;53.05;;;14.00;1.00;;;;;;5112577;28;20026;-59
2023/02/24 02:37:49;;;;;;;84.50;53.63;;;13.90;1.00;;;;;;5096062;27;20089;-59
2023/02/24 02:40:25;;;;;;;85.85;53.08;;;13.90;1.00;;;;;;5112386;28;20032;-59
2023/02/24 02:42:59;;;;;;;87.78;55.00;;;13.90;1.00;;;;;;5112132;28;20047;-59
2023/02/24 02:45:40;;;;;;;85.47;53.83;;;13.90;1.00;;;;;;5111921;28;20039;-58
2023/02/24 02:48:40;;;;;;;85.43;53.63;;;13.80;1.00;;;;;;5112271;28;20031;-59
2023/02/24 02:51:09;;;;;;;86.70;54.40;;;13.90;1.00;;;;;;5079281;28;20048;-59
2023/02/24 02:53:46;;;;;;;84.90;54.05;;;13.90;1.00;;;;;;5112004;28;20361;-59
2023/02/24 02:56:14;;;;;;;88.63;55.35;;;13.90;1.00;;;;;;5112022;28;20325;-59
2023/02/24 02:58:45;;;;;;;83.72;53.67;;;13.90;1.00;;;;;;5112023;28;20024;-59
2023/02/24 03:01:15;;;;;;;85.47;53.72;;;13.90;1.00;;;;;;5112119;28;20031;-58
2023/02/24 03:03:49;;;;;;;90.55;54.70;;;13.90;1.00;;;;;;5112158;28;20061;-59
2023/02/24 03:06:27;;;;;;;87.45;57.25;;;13.90;1.00;;;;;;5112388;28;20378;-59
2023/02/24 03:09:16;;;;;;;92.53;56.67;;;13.90;1.00;;;;;;5112111;28;20051;-59
2023/02/24 03:11:47;;;;;;;86.97;54.67;;;13.90;1.00;;;;;;5111874;28;20019;-59
2023/02/24 03:14:15;;;;;;;90.25;55.10;;;13.90;1.00;;;;;;5112103;28;20053;-59
2023/02/24 03:16:44;;;;;;;90.80;56.30;;;13.90;1.00;;;;;;5112042;28;20138;-59
2023/02/24 03:19:36;;;;;;;89.18;56.00;;;13.90;1.00;;;;;;5095776;28;20032;-59
2023/02/24 03:22:19;;;;;;;93.43;57.97;;;13.90;1.00;;;;;;5093861;28;20024;-59
2023/02/24 03:24:45;;;;;;;86.38;54.97;;;13.90;1.00;;;;;;5108170;28;20024;-59
2023/02/24 03:27:22;;;;;;;87.43;55.10;;;13.90;1.00;;;;;;5097711;28;20031;-59
2023/02/24 03:30:20;;;;;;;89.40;56.50;;;13.90;1.00;;;;;;5112069;28;20080;-59
2023/02/24 03:32:53;;;;;;;92.53;58.05;;;13.90;1.00;;;;;;5111894;28;20028;-59
2023/02/24 03:35:22;;;;;;;90.18;56.22;;;13.90;1.00;;;;;;5111707;28;20028;-59
2023/02/24 03:37:49;;;;;;;90.32;58.20;;;13.90;1.00;;;;;;5110443;28;20510;-59
2023/02/24 03:40:15;;;;;;;93.15;56.97;;;13.90;1.00;;;;;;5110379;28;20051;-59
2023/02/24 03:42:47;;;;;;;101.00;60.22;;;13.90;1.00;;;;;;5111659;28;20134;-59
2023/02/24 03:45:15;;;;;;;91.00;56.83;;;13.90;1.00;;;;;;5108920;28;20080;-59
2023/02/24 03:47:41;;;;;;;95.28;56.88;;;13.90;1.00;;;;;;5111599;28;20117;-59
2023/02/24 03:50:19;;;;;;;86.90;54.92;;;13.90;1.00;;;;;;5111567;28;20027;-57
2023/02/24 03:52:52;;;;;;;92.10;59.33;;;13.90;1.00;;;;;;5095057;28;20366;-59
2023/02/24 03:55:26;;;;;;;91.95;58.47;;;13.90;1.00;;;;;;5092753;28;20473;-59
2023/02/24 03:58:25;;;;;;;93.03;57.35;;;13.90;1.00;;;;;;5094965;28;20474;-59
2023/02/24 04:01:04;;;;;;;91.65;56.90;;;13.90;1.00;;;;;;5106746;28;20051;-59
2023/02/24 04:04:08;;;;;;;91.82;57.85;;;13.80;1.00;;;;;;5115178;28;20085;-59
2023/02/24 04:06:52;;;;;;;99.05;59.65;;;13.80;1.00;;;;;;5069388;28;20060;-59
2023/02/24 04:09:41;;;;;;;103.43;62.38;;;13.80;1.00;;;;;;5102928;28;20023;-59
2023/02/24 04:12:31;;;;;;;93.47;58.63;;;13.80;1.00;;;;;;5101122;28;20023;-59
2023/02/24 04:15:07;;;;;;;90.28;56.20;;;13.80;1.00;;;;;;5115093;28;20032;-59
2023/02/24 04:17:50;;;;;;;100.25;59.95;;;13.80;1.00;;;;;;5115301;28;20103;-59
2023/02/24 04:20:20;;;;;;;97.38;59.08;;;13.90;1.00;;;;;;5114752;28;20051;-59
2023/02/24 04:22:50;;;;;;;95.30;59.10;;;13.90;1.00;;;;;;5115182;28;20472;-59
2023/02/24 04:25:23;;;;;;;97.85;60.10;;;13.90;1.00;;;;;;5114627;28;20457;-59
2023/02/24 04:27:53;;;;;;;92.03;57.13;;;13.90;1.00;;;;;;5114802;28;20020;-59
2023/02/24 04:30:21;;;;;;;95.25;59.08;;;13.90;1.00;;;;;;5114655;28;20039;-59
2023/02/24 04:32:46;;;;;;;96.78;60.13;;;13.90;1.00;;;;;;5114908;28;20060;-59
2023/02/24 04:35:15;;;;;;;98.93;59.72;;;13.90;1.00;;;;;;5114588;28;20032;-59
2023/02/24 04:37:44;;;;;;;97.55;58.65;;;13.80;1.00;;;;;;5114573;28;20480;-59
2023/02/24 04:40:20;;;;;;;91.30;57.90;;;13.70;1.00;;;;;;5113008;28;20036;-59
2023/02/24 04:42:47;;;;;;;91.72;58.45;;;13.80;1.00;;;;;;5108017;28;20020;-59
2023/02/24 04:45:23;;;;;;;96.75;57.90;;;13.70;1.00;;;;;;5106066;28;20495;-59
2023/02/24 04:47:50;;;;;;;95.40;59.03;;;13.70;1.00;;;;;;5114220;28;20043;-59
2023/02/24 04:50:22;;;;;;;95.93;57.83;;;13.70;1.00;;;;;;5114249;28;20027;-59
2023/02/24 04:53:25;;;;;;;95.25;58.97;;;13.70;1.00;;;;;;5107500;28;20381;-59
2023/02/24 04:55:51;;;;;;;89.05;56.20;;;13.70;1.00;;;;;;5110273;28;20480;-59
2023/02/24 04:58:19;;;;;;;84.80;55.03;;;13.70;1.00;;;;;;5114005;28;20053;-59
2023/02/24 05:00:47;;;;;;;87.60;55.05;;;13.70;1.00;;;;;;5113870;28;20028;-59
2023/02/24 05:03:15;;;;;;;84.97;54.22;;;13.70;1.00;;;;;;5114021;27;20032;-59
2023/02/24 05:05:55;;;;;;;95.57;57.90;;;13.70;1.00;;;;;;5113772;28;20093;-59
2023/02/24 05:08:21;;;;;;;94.03;54.60;;;13.60;1.00;;;;;;5103121;28;20039;-59
2023/02/24 05:10:47;;;;;;;88.35;55.72;;;13.70;1.00;;;;;;5114046;28;20523;-59
2023/02/24 05:13:25;;;;;;;95.90;57.70;;;13.70;1.00;;;;;;5110956;28;20036;-59
2023/02/24 05:15:50;;;;;;;91.68;57.30;;;13.70;1.00;;;;;;5103382;28;20016;-59
2023/02/24 05:18:16;;;;;;;91.13;57.42;;;13.70;1.00;;;;;;5105264;28;20372;-59
2023/02/24 05:23:38;;;;;;;92.55;58.17;;;13.60;1.00;;;;;;5114023;28;20035;-59
2023/02/24 05:26:07;;;;;;;91.13;56.35;;;13.70;1.00;;;;;;5113858;27;20019;-59
2023/02/24 05:28:35;;;;;;;92.82;57.78;;;13.70;1.00;;;;;;5113501;28;20015;-57
2023/02/24 05:31:07;;;;;;;91.93;57.40;;;13.70;1.00;;;;;;5113502;27;20015;-59
2023/02/24 05:33:34;;;;;;;92.68;56.75;;;13.70;1.00;;;;;;5113708;28;20080;-59
2023/02/24 05:36:08;;;;;;;91.70;57.05;;;13.70;1.00;;;;;;5113230;28;20028;-58
2023/02/24 05:38:36;;;;;;;94.78;59.35;;;13.70;1.00;;;;;;5112229;28;20039;-59
2023/02/24 05:41:15;;;;;;;93.20;57.67;;;13.70;1.00;;;;;;5111726;28;20476;-59
2023/02/24 05:43:51;;;;;;;90.72;58.78;;;13.70;1.00;;;;;;5113293;28;20055;-59
2023/02/24 05:46:26;;;;;;;93.05;56.83;;;13.70;1.00;;;;;;5099460;28;20500;-59
2023/02/24 05:48:55;;;;;;;96.60;59.72;;;13.70;1.00;;;;;;5113473;28;20201;-59
2023/02/24 05:51:23;;;;;;;92.55;59.17;;;13.70;1.00;;;;;;5097495;28;20052;-59
2023/02/24 05:53:54;;;;;;;97.68;58.67;;;13.70;1.00;;;;;;5113393;28;20030;-59
2023/02/24 05:56:23;;;;;;;95.97;61.30;;;13.70;1.00;;;;;;5112944;28;20022;-59
2023/02/24 05:59:00;;;;;;;95.10;58.33;;;13.60;1.00;;;;;;5113380;28;20423;-59
2023/02/24 06:01:34;;;;;;;92.03;57.50;;;13.60;1.00;;;;;;5112845;28;20098;-59
2023/02/24 06:04:07;;;;;;;90.72;57.65;;;13.60;1.00;;;;;;5112976;28;20024;-59
2023/02/24 06:06:36;;;;;;;94.88;58.53;;;13.50;1.00;;;;;;5107790;28;20027;-59
2023/02/24 06:09:08;;;;;;;100.53;64.13;;;13.60;1.00;;;;;;5104574;28;20036;-59
2023/02/24 06:11:34;;;;;;;99.22;61.08;;;13.60;1.00;;;;;;5112668;28;20496;-59
2023/02/24 06:14:00;;;;;;;100.38;59.03;;;13.50;1.00;;;;;;5113024;28;20035;-59
2023/02/24 06:16:26;;;;;;;97.18;59.05;;;13.50;1.00;;;;;;5112668;28;20024;-59
2023/02/24 06:18:52;;;;;;;94.93;61.22;;;13.50;1.00;;;;;;5111637;28;20438;-59
2023/02/24 06:21:17;;;;;;;95.38;61.25;;;13.60;1.00;;;;;;5112490;28;20020;-59
2023/02/24 06:23:44;;;;;;;101.53;62.15;;;13.50;1.00;;;;;;5111811;28;20023;-59
2023/02/24 06:26:18;;;;;;;102.25;63.17;;;13.50;1.00;;;;;;5112451;28;20023;-59
2023/02/24 06:28:45;;;;;;;102.18;60.75;;;13.50;1.00;;;;;;5112754;28;20076;-59
2023/02/24 06:31:12;;;;;;;95.57;60.10;;;13.50;1.00;;;;;;5112831;28;20040;-59
2023/02/24 06:33:39;;;;;;;102.32;62.30;;;13.50;1.00;;;;;;5112446;28;20030;-59
2023/02/24 06:36:06;;;;;;;97.05;61.47;;;13.50;1.00;;;;;;5112728;28;20023;-59
2023/02/24 06:38:34;;;;;;;95.78;58.50;;;13.60;1.00;;;;;;5112690;27;20036;-59
2023/02/24 06:41:02;;;;;;;95.50;60.30;;;13.60;1.00;;;;;;5112243;28;20028;-59
2023/02/24 06:43:29;;;;;;;104.28;62.97;;;13.50;1.00;;;;;;5111287;28;20484;-59
2023/02/24 06:45:55;;;;;;;96.95;62.15;;;13.50;1.00;;;;;;5112473;28;20385;-59
2023/02/24 06:48:21;;;;;;;100.88;60.05;;;13.60;1.00;;;;;;5112518;28;20028;-59
2023/02/24 06:50:49;;;;;;;94.93;61.10;;;13.60;1.00;;;;;;5111040;28;20450;-59
2023/02/24 06:53:18;;;;;;;97.65;60.45;;;13.70;1.00;;;;;;5112319;28;20008;-59
2023/02/24 06:55:47;;;;;;;94.32;62.08;;;13.70;1.00;;;;;;5112215;28;20050;-59
2023/02/24 06:58:18;;;;;;;96.55;60.92;;;13.70;1.00;;;;;;5112347;28;20053;-59
2023/02/24 07:00:55;;;;;;;91.13;58.67;;;13.70;1.00;;;;;;5112733;28;20027;-59
2023/02/24 07:03:38;;;;;;;100.03;61.33;;;13.80;1.00;;;;;;5099010;28;20027;-59
2023/02/24 07:06:20;;;;;;;91.10;57.95;;;13.70;1.00;;;;;;5112496;28;20032;-59
2023/02/24 07:08:47;;;;;;;94.55;58.15;;;13.80;1.00;;;;;;5112282;28;20024;-59
2023/02/24 07:11:15;;;;;;;96.40;59.45;;;13.80;1.00;;;;;;5112254;28;20027;-59
2023/02/24 07:13:41;;;;;;;93.20;59.17;;;13.80;1.00;;;;;;5112047;28;20031;-59
2023/02/24 07:16:06;;;;;;;95.00;59.05;;;13.90;1.00;;;;;;5110846;28;20032;-59
2023/02/24 07:18:34;;;;;;;95.07;62.03;;;14.00;1.00;;;;;;5112363;28;20076;-59
2023/02/24 07:21:03;;;;;;;102.00;60.65;;;14.00;1.00;;;;;;5111933;28;20016;-59
2023/02/24 07:23:30;;;;;;;89.38;58.42;;;14.00;1.00;;;;;;5110983;28;20016;-59
2023/02/24 07:25:57;;;;;;;93.28;59.63;;;14.00;1.00;;;;;;5111947;28;20084;-59
2023/02/24 07:28:24;;;;;;;93.25;59.78;;;14.00;1.00;;;;;;5111808;28;20069;-59
2023/02/24 07:30:51;;;;;;;96.43;61.60;;;14.00;1.00;;;;;;5098475;28;20123;-59
2023/02/24 07:33:18;;;;;;;92.78;59.00;;;14.00;1.00;;;;;;5104195;28;20020;-59
2023/02/24 07:35:49;;;;;;;98.55;61.22;;;14.00;1.00;;;;;;5113348;28;20042;-59
2023/02/24 07:38:18;;;;;;;96.35;59.78;;;13.90;1.00;;;;;;5105614;28;20016;-59
2023/02/24 07:40:46;;;;;;;95.13;60.47;;;14.00;1.00;;;;;;5095483;28;20020;-59
2023/02/24 07:43:11;;;;;;;95.90;60.03;;;14.00;1.00;;;;;;5100105;28;20031;-59
2023/02/24 07:45:37;;;;;;;94.53;60.20;;;14.00;1.00;;;;;;5115504;28;20528;-59
2023/02/24 07:48:03;;;;;;;93.82;60.38;;;14.00;1.00;;;;;;5114150;28;20024;-59
2023/02/24 07:50:31;;;;;;;95.75;59.35;;;14.00;1.00;;;;;;5099548;28;20130;-59
2023/02/24 07:52:58;;;;;;;93.50;59.13;;;13.90;1.00;;;;;;5099168;28;20384;-59
2023/02/24 07:55:30;;;;;;;95.47;61.03;;;14.00;1.00;;;;;;5115432;28;20052;-59
2023/02/24 07:57:56;;;;;;;100.00;59.15;;;14.00;1.00;;;;;;5114012;28;20452;-59
2023/02/24 08:00:26;;;;;;;99.88;61.90;;;13.90;1.00;;;;;;5115244;28;20028;-59
2023/02/24 08:02:54;;;;;;;97.03;59.00;;;14.00;1.00;;;;;;5115281;28;20119;-59
2023/02/24 08:05:21;;;;;;;95.00;58.83;;;14.00;1.00;;;;;;5115315;28;20027;-60
2023/02/24 08:07:48;;;;;;;91.25;57.40;;;14.00;1.00;;;;;;5103233;28;20024;-57
2023/02/24 08:10:23;;;;;;;91.80;57.40;;;14.00;1.00;;;;;;5115300;28;20027;-59
2023/02/24 08:12:53;;;;;;;;;;;14.00;1.00;;;;;;5115548;28;20096;-57
2023/02/24 08:15:23;;;;;;;99.97;59.65;;;14.00;1.00;;;;;;5100846;28;19915;-59
2023/02/24 08:17:58;;;;;;;94.28;58.72;;;14.10;1.00;;;;;;5115324;28;20112;-59
2023/02/24 08:20:25;;;;;;;96.10;58.75;;;14.10;1.00;;;;;;5101185;28;20388;-57
2023/02/24 08:22:52;;;;;;;99.90;58.38;;;14.20;1.00;;;;;;5100156;28;20111;-56
2023/02/24 08:25:21;;;;;;;95.63;59.97;;;14.10;1.00;;;;;;5113456;28;20024;-54
2023/02/24 08:27:55;;;;;;;99.60;59.00;;;14.10;1.00;;;;;;5114919;28;20016;-55
2023/02/24 08:30:22;;;;;;;92.00;58.15;;;14.10;1.00;;;;;;5114990;28;20030;-58
2023/02/24 08:32:58;;;;;;;98.50;60.25;;;14.20;1.00;;;;;;5115172;28;20034;-55
2023/02/24 08:35:34;;;;;;;94.90;57.40;;;14.20;1.00;;;;;;5115016;28;20076;-54
2023/02/24 08:38:21;;;;;;;89.35;58.15;;;14.10;1.00;;;;;;5114817;27;20069;-56
2023/02/24 08:40:51;;;;;;;89.63;55.92;;;14.10;1.00;;;;;;5114596;28;20023;-56
2023/02/24 08:43:45;;;;;;;93.85;64.13;;;14.20;1.00;;;;;;5114031;28;20027;-57
2023/02/24 08:46:24;;;;;;;98.28;59.75;;;14.20;1.00;;;;;;5112018;28;20477;-57
2023/02/24 08:48:56;;;;;;;97.07;60.50;;;14.20;1.00;;;;;;5114334;28;20496;-57
2023/02/24 08:51:33;;;;;;;92.63;60.00;;;14.30;1.00;;;;;;5114614;28;20075;-57
2023/02/24 08:54:16;;;;;;;90.10;57.22;;;14.30;1.00;;;;;;5114324;28;20077;-56
2023/02/24 08:56:47;;;;;;;89.35;57.28;;;14.40;1.00;;;;;;5113142;28;20028;-57
2023/02/24 09:05:09;;;;;;;95.57;60.85;;;14.40;1.00;;;;;;5087684;28;20423;-56
2023/02/24 09:07:37;;;;;;;100.32;62.20;;;14.50;1.00;;;;;;5114318;28;20015;-56
2023/02/24 09:10:10;;;;;;;102.03;62.00;;;14.40;1.00;;;;;;5114058;28;20032;-56
2023/02/24 09:12:40;;;;;;;100.85;62.28;;;14.50;1.00;;;;;;5113982;28;20492;-57
2023/02/24 09:15:07;;;;;;;102.88;61.83;;;14.50;1.00;;;;;;5112780;28;20028;-55
2023/02/24 09:17:39;;;;;;;99.40;62.20;;;14.50;1.00;;;;;;5112657;28;20012;-56
2023/02/24 09:23:18;;;;;;;92.82;59.83;;;14.60;1.00;;;;;;5114118;28;20119;-55
2023/02/24 09:25:48;;;;;;;100.93;61.40;;;14.60;1.00;;;;;;5099623;28;20027;-56
2023/02/24 09:28:23;;;;;;;90.82;58.70;;;14.60;1.00;;;;;;5114135;28;20400;-54
2023/02/24 09:30:53;;;;;;;;;;;14.70;1.00;;;;;;5114002;28;20542;-57
2023/02/24 09:33:37;;;;;;;95.82;61.30;;;14.60;1.00;;;;;;5113633;28;20353;-57
2023/02/24 09:36:09;;;;;;;95.03;61.38;;;14.70;1.00;;;;;;5120839;27;20063;-59
2023/02/24 09:44:43;;;;;;;94.32;61.03;;;14.80;1.00;;;;;;5113637;28;20084;-60
2023/02/24 09:47:38;;;;;;;96.85;63.95;;;14.90;1.00;;;;;;5113354;28;20101;-60
2023/02/24 09:50:16;;;;;;;96.43;61.33;;;15.00;1.00;;;;;;5113138;28;20031;-60
2023/02/24 09:52:42;;;;;;;93.70;61.40;;;15.00;1.00;;;;;;5113226;28;20027;-60
2023/02/24 09:55:23;;;;;;;93.88;60.83;;;15.20;1.00;;;;;;5113035;28;20031;-60
2023/02/24 10:00:46;;;;;;;93.72;61.47;;;15.30;1.00;;;;;;5113032;28;20071;-60
2023/02/24 10:03:40;;;;;;;92.95;61.63;;;15.40;1.00;;;;;;5106313;28;20031;-60
2023/02/24 10:06:19;;;;;;;99.57;62.42;;;15.50;1.00;;;;;;5113052;28;20023;-60
2023/02/24 10:08:56;;;;;;;95.05;62.58;;;15.40;1.00;;;;;;5112942;28;20071;-60
2023/02/24 10:11:31;;;;;;;96.20;60.22;;;15.50;1.00;;;;;;5112852;28;20043;-60
2023/02/24 10:14:00;;;;;;;93.53;61.13;;;15.40;1.00;;;;;;5113030;28;20094;-60
2023/02/24 10:16:40;;;;;;;94.32;59.70;;;15.40;1.00;;;;;;5112727;28;20023;-60
2023/02/24 10:19:33;;;;;;;90.07;59.65;;;15.50;1.00;;;;;;5112659;28;20063;-60
2023/02/24 10:22:26;;;;;;;91.35;59.53;;;15.50;1.00;;;;;;5096884;28;20038;-59
2023/02/24 10:25:09;;;;;;;98.97;60.35;;;15.60;1.00;;;;;;5110446;28;20127;-59
2023/02/24 10:27:51;;;;;;;93.35;59.85;;;15.50;1.00;;;;;;5112619;28;20043;-59
2023/02/24 10:31:08;;;;;;;89.35;60.25;;;15.60;1.00;;;;;;5099505;28;20574;-59
2023/02/24 10:33:44;;;;;;;89.18;60.50;;;15.60;1.00;;;;;;5081411;28;20031;-60
2023/02/24 10:36:17;;;;;;;89.85;61.25;;;15.70;1.00;;;;;;5108480;28;20076;-60
2023/02/24 10:38:44;;;;;;;93.60;61.70;;;15.70;1.00;;;;;;5112345;28;20035;-60
2023/02/24 10:41:10;;;;;;;96.22;61.80;;;15.70;1.00;;;;;;5105056;28;20038;-60
2023/02/24 10:43:44;;;;;;;96.00;59.67;;;15.70;1.00;;;;;;5112100;28;20133;-59
2023/02/24 10:46:21;;;;;;;93.18;60.85;;;15.70;1.00;;;;;;5105715;28;20035;-60
2023/02/24 10:49:02;;;;;;;98.30;63.63;;;15.80;1.00;;;;;;5097971;28;20469;-60
2023/02/24 10:51:31;;;;;;;94.63;63.28;;;15.70;1.00;;;;;;5112027;28;20056;-60
2023/02/24 10:57:06;;;;;;;94.95;62.83;;;15.90;1.00;;;;;;5112553;28;20118;-59
2023/02/24 11:02:55;;;;;;;90.63;62.85;;;16.00;1.00;;;;;;5101210;28;20085;-59
2023/02/24 11:05:37;;;;;;;94.43;63.28;;;16.00;1.00;;;;;;5112426;27;20018;-59
2023/02/24 11:08:14;;;;;;;92.65;62.53;;;16.30;1.00;;;;;;5116562;28;20019;-59
2023/02/24 11:10:52;;;;;;;95.10;62.80;;;16.30;1.00;;;;;;5116156;28;20027;-59
2023/02/24 11:18:51;;;;;;;96.90;59.85;;;16.50;1.00;;;;;;5098051;28;19915;-59
2023/02/24 11:21:17;;;;;;;93.70;62.20;;;16.60;1.00;;;;;;5116171;28;20020;-59
2023/02/24 11:23:45;;;;;;;93.70;61.42;;;16.60;1.00;;;;;;5114915;28;20432;-59
2023/02/24 11:26:17;;;;;;;90.03;59.25;;;16.60;1.00;;;;;;5115990;28;20126;-59
2023/02/24 11:29:05;;;;;;;92.75;59.13;;;16.50;1.00;;;;;;5115933;28;20023;-59
2023/02/24 11:31:50;;;;;;;89.22;58.42;;;16.50;1.00;;;;;;5115883;28;20015;-59
2023/02/24 11:34:29;;;;;;;90.32;58.97;;;16.60;1.00;;;;;;5114645;28;20088;-59
2023/02/24 11:37:15;;;;;;;89.55;58.53;;;16.60;1.00;;;;;;5112401;28;20028;-59
2023/02/24 11:39:57;;;;;;;88.97;60.83;;;16.60;1.00;;;;;;5101838;28;20039;-59
2023/02/24 11:42:36;;;;;;;90.25;59.35;;;16.80;1.00;;;;;;5115880;27;20027;-59
2023/02/24 11:45:34;;;;;;;92.88;60.10;;;16.80;1.00;;;;;;5114362;28;20030;-59
2023/02/24 11:48:13;;;;;;;88.97;58.45;;;16.80;1.00;;;;;;5085038;28;20384;-59
2023/02/24 11:50:54;;;;;;;88.32;58.35;;;16.80;1.00;;;;;;5115249;28;20043;-59
2023/02/24 11:53:48;;;;;;;90.95;60.03;;;16.70;1.00;;;;;;5114118;28;20031;-59
2023/02/24 11:56:40;;;;;;;85.07;57.28;;;16.70;1.00;;;;;;5114246;28;20024;-59
2023/02/24 11:59:11;;;;;;;84.63;56.40;;;16.70;1.00;;;;;;5106035;28;20071;-60
2023/02/24 12:02:04;;;;;;;87.25;57.70;;;16.70;1.00;;;;;;5115362;28;20110;-60
2023/02/24 12:04:57;;;;;;;91.70;58.78;;;16.80;1.00;;;;;;5115546;28;20024;-60
2023/02/24 12:07:37;;;;;;;87.15;58.75;;;17.00;1.00;;;;;;5115598;28;20028;-60
2023/02/24 12:10:14;;;;;;;81.50;56.47;;;17.00;1.00;;;;;;5102993;28;20015;-59
2023/02/24 12:13:10;;;;;;;82.60;56.70;;;16.90;1.00;;;;;;5115207;28;20130;-59
2023/02/24 12:15:39;;;;;;;83.22;56.13;;;17.00;1.00;;;;;;5115143;28;20023;-59
2023/02/24 12:18:23;;;;;;;96.05;63.63;;;17.00;1.00;;;;;;5115003;28;20153;-59
2023/02/24 12:21:22;;;;;;;79.90;55.38;;;17.10;1.00;;;;;;5115277;28;20038;-59
2023/02/24 12:23:52;;;;;;;93.18;62.20;;;17.00;1.00;;;;;;5103669;28;20496;-59
2023/02/24 12:27:00;;;;;;;89.88;57.30;;;16.90;1.00;;;;;;5114721;28;20026;-59
2023/02/24 12:29:44;;;;;;;80.65;56.55;;;16.90;1.00;;;;;;5071893;28;20362;-59
2023/02/24 12:32:20;;;;;;;83.55;57.33;;;16.80;1.00;;;;;;5101869;28;20141;-59
2023/02/24 12:35:18;;;;;;;85.90;56.67;;;16.70;1.00;;;;;;5110605;28;20081;-59
2023/02/24 12:37:56;;;;;;;84.63;54.05;;;16.80;1.00;;;;;;5107271;28;20350;-59
2023/02/24 12:40:45;;;;;;;80.85;53.10;;;16.90;1.00;;;;;;5114807;28;20031;-59
2023/02/24 12:43:33;;;;;;;88.45;57.97;;;16.90;1.00;;;;;;5114553;28;20027;-59
2023/02/24 12:46:23;;;;;;;78.63;53.00;;;16.80;1.00;;;;;;5114870;28;20030;-59
2023/02/24 12:49:01;;;;;;;81.32;53.72;;;16.90;1.00;;;;;;5114415;27;20114;-59
2023/02/24 12:51:45;;;;;;;77.88;52.40;;;16.80;1.00;;;;;;5093845;28;20052;-59
2023/02/24 12:54:23;;;;;;;75.90;51.05;;;16.90;1.00;;;;;;5102403;28;20028;-59
2023/02/24 12:56:54;;;;;;;76.60;51.05;;;16.90;1.00;;;;;;5114445;28;20081;-59
2023/02/24 12:59:26;;;;;;;78.45;51.65;;;16.80;1.00;;;;;;5094680;28;20040;-59
2023/02/24 13:02:23;;;;;;;70.88;49.05;;;16.80;1.00;;;;;;5110731;28;20077;-59
2023/02/24 13:04:57;;;;;;;77.63;50.50;;;16.70;1.00;;;;;;5114421;28;20043;-59
2023/02/24 13:07:39;;;;;;;77.00;49.63;;;16.70;1.00;;;;;;5114263;28;20024;-59
2023/02/24 13:10:37;;;;;;;77.07;50.08;;;16.70;1.00;;;;;;5108011;27;20036;-59
2023/02/24 13:13:38;;;;;;;74.88;50.22;;;16.60;1.00;;;;;;5114157;28;20074;-59
2023/02/24 13:16:05;;;;;;;71.40;46.35;;;16.60;1.00;;;;;;5036355;28;20450;-59
2023/02/24 13:18:38;;;;;;;72.10;47.17;;;16.60;1.00;;;;;;5101380;28;20120;-59
2023/02/24 13:21:12;;;;;;;71.32;47.42;;;16.40;1.00;;;;;;5112816;28;20028;-61
2023/02/24 13:23:41;;;;;;;63.97;44.17;;;16.50;1.00;;;;;;5114147;28;20034;-58
2023/02/24 13:26:09;;;;;;;69.30;44.75;;;16.30;1.00;;;;;;5102615;28;20019;-58
2023/02/24 13:28:37;;;;;;;67.88;44.33;;;16.50;1.00;;;;;;5113010;28;20031;-59
2023/02/24 13:31:10;;;;;;;66.28;44.70;;;16.50;1.00;;;;;;5111987;28;20020;-59
2023/02/24 13:33:39;;;;;;;70.22;46.13;;;16.80;1.00;;;;;;5113760;28;20031;-59
2023/02/24 13:36:24;;;;;;;70.68;45.50;;;17.00;1.00;;;;;;5105944;28;20042;-59
2023/02/24 13:38:53;;;;;;;67.60;44.58;;;17.20;1.00;;;;;;5113414;28;20096;-58
2023/02/24 13:41:21;;;;;;;67.82;45.13;;;17.30;1.00;;;;;;5113315;28;20038;-58
2023/02/24 13:43:58;;;;;;;70.63;45.47;;;17.40;1.00;;;;;;5113318;28;20102;-59
2023/02/24 13:46:33;;;;;;;66.53;44.28;;;17.30;1.00;;;;;;5113193;28;20031;-59
2023/02/24 13:49:17;;;;;;;70.72;47.05;;;17.20;1.00;;;;;;5113032;28;20047;-60